»·PEaware :: N4131C KSBP-KSMX

N4131C :: KSBP-KSMX

FLIGHT INFORMATION

Flight Status: Arrived
Operator: Privately registered:
United States
More flights under this callsign
Pilot: Patrick S. (19405)
Aircraft: PIPER PA-28R-201 ARROW
(P28R)
More flights by this aircraft type
Origin: KSBP San Luis Co Regl
United States
Destination: KSMX Santa Maria Pub/Capt Hancock
United States
More flights between these airports :: More routes between these airports
Route: +
File this flight plan on PilotEdge
Remarks:
Altitude:
(Current/Filed)
3,500ft
Speed:
(Current/Filed)
135kts
Departed: 25-Jan-19 04:54 PM
Arrived: 25-Jan-19 05:17 PM
Distance/Time
Traveled:
22nm/0:23
Distance/Time
To Go:
Arrived

Flight Plot

Page will automatically refresh every two minutes.


Map Options




Map Legend


Flown Route
Filed Route
Departure Airport
Arrival Airport
Navaid (VOR, NDB)
Fix

Horizontal Profiles

Position Reports

Time Latitude Longitude Heading Altitude Ground
Speed
25-Jan-19 16:30 35.238258 -120.645789 269 214ft 0kts
25-Jan-19 16:31 35.238258 -120.645789 269 214ft 0kts
25-Jan-19 16:32 35.238258 -120.645789 269 214ft 0kts
25-Jan-19 16:33 35.238258 -120.645789 269 214ft 0kts
25-Jan-19 16:34 35.238258 -120.645789 269 214ft 0kts
25-Jan-19 16:35 35.238258 -120.645789 269 214ft 0kts
25-Jan-19 16:36 35.238258 -120.645789 269 214ft 0kts
25-Jan-19 16:37 35.238258 -120.645789 269 214ft 0kts
25-Jan-19 16:38 35.238258 -120.645789 269 214ft 0kts
25-Jan-19 16:39 35.238258 -120.645789 269 214ft 0kts
25-Jan-19 16:40 35.238258 -120.645789 269 214ft 0kts
25-Jan-19 16:41 35.238258 -120.645789 269 214ft 0kts
25-Jan-19 16:42 35.238258 -120.645789 269 214ft 0kts
25-Jan-19 16:43 35.238258 -120.645789 269 214ft 0kts
25-Jan-19 16:44 35.238258 -120.645789 269 214ft 0kts
25-Jan-19 16:45 35.238258 -120.645789 269 214ft 0kts
25-Jan-19 16:46 35.238271 -120.645845 295 214ft 3kts
25-Jan-19 16:47 35.238484 -120.647296 64 214ft 14kts
25-Jan-19 16:48 35.237777 -120.642968 65 214ft 0kts
25-Jan-19 16:49 35.237780 -120.642450 90 214ft 18kts
25-Jan-19 16:50 35.235076 -120.635168 123 214ft 26kts
25-Jan-19 16:51 35.233234 -120.632661 222 214ft 0kts
25-Jan-19 16:52 35.233020 -120.633423 302 214ft 9kts
25-Jan-19 16:53 35.243466 -120.650553 304 894ft 71kts
25-Jan-19 16:54 35.230681 -120.648353 128 1222ft 124kts
25-Jan-19 16:55 35.208592 -120.617504 140 1443ft 113kts
25-Jan-19 16:56 35.185189 -120.598223 155 1686ft 122kts
25-Jan-19 16:57 35.156690 -120.585827 163 2533ft 117kts
25-Jan-19 16:58 35.128672 -120.575482 155 3044ft 126kts
25-Jan-19 17:00 35.097736 -120.555555 146 3532ft 138kts
25-Jan-19 17:01 35.059417 -120.540052 169 3462ft 154kts
25-Jan-19 17:02 35.018711 -120.530536 162 3654ft 132kts
25-Jan-19 17:03 34.983104 -120.505933 153 3697ft 152kts
25-Jan-19 17:04 35.003934 -120.486262 1 2580ft 137kts
25-Jan-19 17:05 35.039766 -120.486642 355 2808ft 124kts
25-Jan-19 17:06 35.075375 -120.496813 338 3003ft 132kts
25-Jan-19 17:07 35.081423 -120.534930 259 2600ft 144kts
25-Jan-19 17:08 35.063574 -120.556779 137 2489ft 117kts
25-Jan-19 17:09 35.040158 -120.532045 109 2281ft 109kts
25-Jan-19 17:10 35.020412 -120.504753 142 1935ft 110kts
25-Jan-19 17:11 34.993941 -120.487437 157 1654ft 106kts
25-Jan-19 17:12 34.966270 -120.477014 165 1501ft 105kts
25-Jan-19 17:13 34.938512 -120.465836 157 1432ft 107kts
25-Jan-19 17:14 34.914111 -120.453347 146 1208ft 113kts
25-Jan-19 17:15 34.890963 -120.431906 134 1281ft 94kts
25-Jan-19 17:16 34.886117 -120.437397 310 682ft 80kts
25-Jan-19 17:17 34.897309 -120.450308 3 263ft 13kts
25-Jan-19 17:18 34.897600 -120.450309 353 263ft 0kts
25-Jan-19 17:19 34.899679 -120.451622 314 263ft 24kts
25-Jan-19 17:20 34.901461 -120.452091 63 263ft 0kts

Navigation Log

Ident Type
Flight plan parsing failed, navigation log unavailable